KJZP

Details ICAO KJZP (JZP)
Name PICKENS CO
Region United States
Timezone America/New_York (UTC-5.0)
Plans Departing 0
Arriving 0
Stats Elevation 1,535 ft / 468 m (AMSL)
Location 34.453373° -84.457367°
Runways 1
Magnetic Variation 5.187° W
Sunrise 2017-12-12 12:36:36 UTC / 2017-12-12 07:36:36 Local
Sunset 2017-12-12 22:29:36 UTC / 2017-12-12 17:29:36 Local
Advertisement - Login to hide

Runways

ID Width Length Bearing (true) Bearing (mag) Surface Threshold Offset Overrun Length
16 100 ft / 30 m 5,011 ft / 1,527 m 159.45° 164.64° Asphalt 0 ft / 0 m 0 ft / 0 m
34 100 ft / 30 m 5,011 ft / 1,527 m 339.46° 344.65° Asphalt 0 ft / 0 m 0 ft / 0 m

Map

Weather


0- 5 10 15 20 25 30 35+ Temperature / ° C

Clouds and Precipitation
Forecast for 2017-12-13 06:00 UTC. Updated 36 minutes ago

Ground ~20,000 ft ~40,000 ft Winds

METAR

KJZP 130130Z AUTO 33012G18KT 10SM CLR 01/M06 A2997 RMK AO2 T00101057 PNO

TAF

Not found

Frequencies

Unicom 122.80 MHz CTAF/UNICOM
Warning: Do not use this data for real-world aviation or navigation. No guarantee of current accuracy is given.